sensor_id;sensor_type;location;lat;lon;timestamp;temperature;humidity
40516;DHT22;26216;53.724;9.898;2024-03-23T00:53:18;9.30;99.90
40516;DHT22;26216;53.724;9.898;2024-03-23T00:55:44;9.30;99.90
40516;DHT22;26216;53.724;9.898;2024-03-23T00:58:10;9.30;99.90
40516;DHT22;26216;53.724;9.898;2024-03-23T01:00:36;9.30;99.90
40516;DHT22;26216;53.724;9.898;2024-03-23T01:03:02;9.30;99.90
40516;DHT22;26216;53.724;9.898;2024-03-23T01:05:27;9.30;99.90
40516;DHT22;26216;53.724;9.898;2024-03-23T01:07:53;9.20;99.90
40516;DHT22;26216;53.724;9.898;2024-03-23T01:10:19;9.20;99.90
40516;DHT22;26216;53.724;9.898;2024-03-23T01:12:45;9.20;99.90
40516;DHT22;26216;53.724;9.898;2024-03-23T01:15:11;9.20;99.90
40516;DHT22;26216;53.724;9.898;2024-03-23T01:17:37;9.20;99.90
40516;DHT22;26216;53.724;9.898;2024-03-23T01:20:03;9.10;99.90
40516;DHT22;26216;53.724;9.898;2024-03-23T01:22:29;9.10;99.90
40516;DHT22;26216;53.724;9.898;2024-03-23T01:24:55;9.10;99.90
40516;DHT22;26216;53.724;9.898;2024-03-23T01:27:21;9.10;99.90
40516;DHT22;26216;53.724;9.898;2024-03-23T01:29:47;9.00;99.90
40516;DHT22;26216;53.724;9.898;2024-03-23T01:32:13;9.10;99.90
40516;DHT22;26216;53.724;9.898;2024-03-23T01:34:38;9.00;99.90
40516;DHT22;26216;53.724;9.898;2024-03-23T01:37:04;9.00;99.90
40516;DHT22;26216;53.724;9.898;2024-03-23T01:43:04;9.00;99.90
40516;DHT22;26216;53.724;9.898;2024-03-23T01:45:31;8.90;99.90
40516;DHT22;26216;53.724;9.898;2024-03-23T01:47:57;8.90;99.90
40516;DHT22;26216;53.724;9.898;2024-03-23T01:50:23;8.90;99.90
40516;DHT22;26216;53.724;9.898;2024-03-23T01:52:50;8.90;99.90
40516;DHT22;26216;53.724;9.898;2024-03-23T01:55:16;8.80;99.90
40516;DHT22;26216;53.724;9.898;2024-03-23T01:57:42;8.80;99.90
40516;DHT22;26216;53.724;9.898;2024-03-23T02:00:10;8.80;99.90
40516;DHT22;26216;53.724;9.898;2024-03-23T02:02:44;8.80;99.90
40516;DHT22;26216;53.724;9.898;2024-03-23T02:05:11;8.70;99.90
40516;DHT22;26216;53.724;9.898;2024-03-23T02:07:39;8.70;99.90
40516;DHT22;26216;53.724;9.898;2024-03-23T02:10:06;8.70;99.90
40516;DHT22;26216;53.724;9.898;2024-03-23T02:12:32;8.60;99.90
40516;DHT22;26216;53.724;9.898;2024-03-23T02:14:58;8.60;99.90
40516;DHT22;26216;53.724;9.898;2024-03-23T02:17:24;8.60;99.90
40516;DHT22;26216;53.724;9.898;2024-03-23T02:19:50;8.60;99.90
40516;DHT22;26216;53.724;9.898;2024-03-23T02:22:16;8.50;99.90
40516;DHT22;26216;53.724;9.898;2024-03-23T02:24:43;8.50;99.90
40516;DHT22;26216;53.724;9.898;2024-03-23T02:27:08;8.50;99.90
40516;DHT22;26216;53.724;9.898;2024-03-23T02:29:34;8.50;99.90
40516;DHT22;26216;53.724;9.898;2024-03-23T02:32:00;8.50;99.90
40516;DHT22;26216;53.724;9.898;2024-03-23T02:34:26;8.40;99.90
40516;DHT22;26216;53.724;9.898;2024-03-23T02:36:52;8.40;99.90
40516;DHT22;26216;53.724;9.898;2024-03-23T02:39:18;8.40;99.90
40516;DHT22;26216;53.724;9.898;2024-03-23T02:41:44;8.30;99.90
40516;DHT22;26216;53.724;9.898;2024-03-23T02:44:10;8.40;99.90
40516;DHT22;26216;53.724;9.898;2024-03-23T02:46:38;8.30;99.90
40516;DHT22;26216;53.724;9.898;2024-03-23T02:49:04;8.30;99.90
40516;DHT22;26216;53.724;9.898;2024-03-23T02:51:30;8.30;99.90
40516;DHT22;26216;53.724;9.898;2024-03-23T02:53:56;8.30;99.90
40516;DHT22;26216;53.724;9.898;2024-03-23T02:56:22;8.30;99.90
40516;DHT22;26216;53.724;9.898;2024-03-23T02:58:48;8.20;99.90
40516;DHT22;26216;53.724;9.898;2024-03-23T03:01:14;8.20;99.90
40516;DHT22;26216;53.724;9.898;2024-03-23T03:03:40;8.20;99.90
40516;DHT22;26216;53.724;9.898;2024-03-23T03:06:06;8.20;99.90
40516;DHT22;26216;53.724;9.898;2024-03-23T03:08:32;8.20;99.90
40516;DHT22;26216;53.724;9.898;2024-03-23T03:10:58;8.10;99.90
40516;DHT22;26216;53.724;9.898;2024-03-23T03:13:24;8.10;99.90
40516;DHT22;26216;53.724;9.898;2024-03-23T03:15:50;8.10;99.90
40516;DHT22;26216;53.724;9.898;2024-03-23T03:18:16;8.10;99.90
40516;DHT22;26216;53.724;9.898;2024-03-23T03:20:41;8.10;99.90
40516;DHT22;26216;53.724;9.898;2024-03-23T03:23:07;8.10;99.90
40516;DHT22;26216;53.724;9.898;2024-03-23T03:25:34;8.00;99.90
40516;DHT22;26216;53.724;9.898;2024-03-23T03:27:59;8.00;99.90
40516;DHT22;26216;53.724;9.898;2024-03-23T03:30:25;8.00;99.90
40516;DHT22;26216;53.724;9.898;2024-03-23T03:32:53;8.00;99.90
40516;DHT22;26216;53.724;9.898;2024-03-23T03:35:19;8.00;99.90
40516;DHT22;26216;53.724;9.898;2024-03-23T03:37:45;7.90;99.90
40516;DHT22;26216;53.724;9.898;2024-03-23T03:40:12;7.90;99.90
40516;DHT22;26216;53.724;9.898;2024-03-23T03:42:37;7.90;99.90
40516;DHT22;26216;53.724;9.898;2024-03-23T03:45:04;7.90;99.90
40516;DHT22;26216;53.724;9.898;2024-03-23T03:47:30;7.90;99.90
40516;DHT22;26216;53.724;9.898;2024-03-23T03:49:56;7.80;99.90
40516;DHT22;26216;53.724;9.898;2024-03-23T03:52:22;7.80;99.90
40516;DHT22;26216;53.724;9.898;2024-03-23T03:54:47;7.80;99.90
40516;DHT22;26216;53.724;9.898;2024-03-23T03:57:13;7.80;99.90
40516;DHT22;26216;53.724;9.898;2024-03-23T03:59:39;7.80;99.90
40516;DHT22;26216;53.724;9.898;2024-03-23T04:02:05;7.80;99.90
40516;DHT22;26216;53.724;9.898;2024-03-23T04:04:31;7.80;99.90
40516;DHT22;26216;53.724;9.898;2024-03-23T04:07:00;7.80;99.90
40516;DHT22;26216;53.724;9.898;2024-03-23T04:09:26;7.80;99.90
40516;DHT22;26216;53.724;9.898;2024-03-23T04:11:52;7.80;99.90
40516;DHT22;26216;53.724;9.898;2024-03-23T04:14:18;7.80;99.90
40516;DHT22;26216;53.724;9.898;2024-03-23T04:16:44;7.80;99.90
40516;DHT22;26216;53.724;9.898;2024-03-23T04:19:10;7.80;99.90
40516;DHT22;26216;53.724;9.898;2024-03-23T04:21:37;7.80;99.90
40516;DHT22;26216;53.724;9.898;2024-03-23T04:24:03;7.80;99.90
40516;DHT22;26216;53.724;9.898;2024-03-23T04:26:29;7.70;99.90
40516;DHT22;26216;53.724;9.898;2024-03-23T04:28:55;7.70;99.90
40516;DHT22;26216;53.724;9.898;2024-03-23T04:31:21;7.70;99.90
40516;DHT22;26216;53.724;9.898;2024-03-23T04:33:47;7.70;99.90
40516;DHT22;26216;53.724;9.898;2024-03-23T04:36:13;7.70;99.90
40516;DHT22;26216;53.724;9.898;2024-03-23T04:38:39;7.70;99.90
40516;DHT22;26216;53.724;9.898;2024-03-23T04:41:05;7.70;99.90
40516;DHT22;26216;53.724;9.898;2024-03-23T04:43:31;7.70;99.90
40516;DHT22;26216;53.724;9.898;2024-03-23T04:45:56;7.60;99.90
40516;DHT22;26216;53.724;9.898;2024-03-23T04:48:23;7.60;99.90
40516;DHT22;26216;53.724;9.898;2024-03-23T04:50:49;7.60;99.90
40516;DHT22;26216;53.724;9.898;2024-03-23T04:53:16;7.60;99.90
40516;DHT22;26216;53.724;9.898;2024-03-23T04:55:42;7.60;99.90
40516;DHT22;26216;53.724;9.898;2024-03-23T04:58:08;7.60;99.90
40516;DHT22;26216;53.724;9.898;2024-03-23T05:00:34;7.60;99.90
40516;DHT22;26216;53.724;9.898;2024-03-23T05:03:00;7.60;99.90
40516;DHT22;26216;53.724;9.898;2024-03-23T05:05:26;7.60;99.90
40516;DHT22;26216;53.724;9.898;2024-03-23T05:07:52;7.60;99.90
40516;DHT22;26216;53.724;9.898;2024-03-23T05:10:17;7.50;99.90
40516;DHT22;26216;53.724;9.898;2024-03-23T05:12:43;7.50;99.90
40516;DHT22;26216;53.724;9.898;2024-03-23T05:15:11;7.50;99.90
40516;DHT22;26216;53.724;9.898;2024-03-23T05:17:37;7.60;99.90
40516;DHT22;26216;53.724;9.898;2024-03-23T05:20:04;7.50;99.90
40516;DHT22;26216;53.724;9.898;2024-03-23T05:22:36;7.60;99.90
40516;DHT22;26216;53.724;9.898;2024-03-23T05:25:02;7.50;99.90
40516;DHT22;26216;53.724;9.898;2024-03-23T05:27:32;7.60;99.90
40516;DHT22;26216;53.724;9.898;2024-03-23T05:29:58;7.60;99.90
40516;DHT22;26216;53.724;9.898;2024-03-23T05:32:24;7.60;99.90
40516;DHT22;26216;53.724;9.898;2024-03-23T05:34:50;7.60;99.90
40516;DHT22;26216;53.724;9.898;2024-03-23T05:37:21;7.60;99.90
40516;DHT22;26216;53.724;9.898;2024-03-23T05:39:47;7.60;99.90
40516;DHT22;26216;53.724;9.898;2024-03-23T05:42:16;7.60;99.90
40516;DHT22;26216;53.724;9.898;2024-03-23T05:44:46;7.60;99.90
40516;DHT22;26216;53.724;9.898;2024-03-23T05:47:12;7.60;99.90
40516;DHT22;26216;53.724;9.898;2024-03-23T05:49:42;7.70;99.90
40516;DHT22;26216;53.724;9.898;2024-03-23T05:52:09;7.70;99.90
40516;DHT22;26216;53.724;9.898;2024-03-23T05:54:35;7.70;99.90
40516;DHT22;26216;53.724;9.898;2024-03-23T05:57:01;7.60;99.90
40516;DHT22;26216;53.724;9.898;2024-03-23T05:59:27;7.70;99.90
40516;DHT22;26216;53.724;9.898;2024-03-23T06:01:53;7.70;99.90
40516;DHT22;26216;53.724;9.898;2024-03-23T06:04:19;7.70;99.90
40516;DHT22;26216;53.724;9.898;2024-03-23T06:06:45;7.70;99.90
40516;DHT22;26216;53.724;9.898;2024-03-23T06:09:11;7.70;99.90
40516;DHT22;26216;53.724;9.898;2024-03-23T06:11:37;7.70;99.90
40516;DHT22;26216;53.724;9.898;2024-03-23T06:14:03;7.80;99.90
40516;DHT22;26216;53.724;9.898;2024-03-23T06:16:29;7.80;99.90
40516;DHT22;26216;53.724;9.898;2024-03-23T06:18:59;7.80;99.90
40516;DHT22;26216;53.724;9.898;2024-03-23T06:21:30;7.80;99.90
40516;DHT22;26216;53.724;9.898;2024-03-23T06:23:55;7.90;99.90
40516;DHT22;26216;53.724;9.898;2024-03-23T06:26:22;7.90;99.90
40516;DHT22;26216;53.724;9.898;2024-03-23T06:28:48;7.90;99.90
40516;DHT22;26216;53.724;9.898;2024-03-23T06:31:13;7.90;99.90
40516;DHT22;26216;53.724;9.898;2024-03-23T06:33:39;8.00;99.90
40516;DHT22;26216;53.724;9.898;2024-03-23T06:36:09;8.00;99.90
40516;DHT22;26216;53.724;9.898;2024-03-23T06:38:36;8.00;99.90
40516;DHT22;26216;53.724;9.898;2024-03-23T06:41:04;8.00;99.90
40516;DHT22;26216;53.724;9.898;2024-03-23T06:43:30;8.00;99.90
40516;DHT22;26216;53.724;9.898;2024-03-23T06:45:56;8.10;99.90
40516;DHT22;26216;53.724;9.898;2024-03-23T06:48:22;8.10;99.90
40516;DHT22;26216;53.724;9.898;2024-03-23T06:50:48;8.10;99.90
40516;DHT22;26216;53.724;9.898;2024-03-23T06:53:14;8.10;99.90
40516;DHT22;26216;53.724;9.898;2024-03-23T06:55:41;8.10;99.90
40516;DHT22;26216;53.724;9.898;2024-03-23T06:58:07;8.10;99.90
40516;DHT22;26216;53.724;9.898;2024-03-23T07:00:33;8.10;99.90
40516;DHT22;26216;53.724;9.898;2024-03-23T07:03:00;8.20;99.90
40516;DHT22;26216;53.724;9.898;2024-03-23T07:05:26;8.20;99.90
40516;DHT22;26216;53.724;9.898;2024-03-23T07:07:51;8.20;99.90
40516;DHT22;26216;53.724;9.898;2024-03-23T07:10:17;8.20;99.90
40516;DHT22;26216;53.724;9.898;2024-03-23T07:12:44;8.30;99.90
40516;DHT22;26216;53.724;9.898;2024-03-23T07:15:10;8.30;99.90
40516;DHT22;26216;53.724;9.898;2024-03-23T07:17:36;8.30;99.90
40516;DHT22;26216;53.724;9.898;2024-03-23T07:20:02;8.30;99.90
40516;DHT22;26216;53.724;9.898;2024-03-23T07:22:32;8.40;99.90
40516;DHT22;26216;53.724;9.898;2024-03-23T07:25:02;8.40;99.90
40516;DHT22;26216;53.724;9.898;2024-03-23T07:27:28;8.50;99.90
40516;DHT22;26216;53.724;9.898;2024-03-23T07:29:54;8.50;99.90
40516;DHT22;26216;53.724;9.898;2024-03-23T07:32:20;8.60;99.90
40516;DHT22;26216;53.724;9.898;2024-03-23T07:34:46;8.60;99.90
40516;DHT22;26216;53.724;9.898;2024-03-23T07:37:12;8.70;99.90
40516;DHT22;26216;53.724;9.898;2024-03-23T07:39:39;8.70;99.90
40516;DHT22;26216;53.724;9.898;2024-03-23T07:42:06;8.70;99.90
40516;DHT22;26216;53.724;9.898;2024-03-23T07:44:32;8.80;99.90
40516;DHT22;26216;53.724;9.898;2024-03-23T07:47:00;8.80;99.90
40516;DHT22;26216;53.724;9.898;2024-03-23T07:49:26;8.90;99.90
40516;DHT22;26216;53.724;9.898;2024-03-23T07:51:52;8.90;99.90
40516;DHT22;26216;53.724;9.898;2024-03-23T07:54:18;9.00;99.90
40516;DHT22;26216;53.724;9.898;2024-03-23T07:56:44;9.10;99.90
40516;DHT22;26216;53.724;9.898;2024-03-23T07:59:10;9.10;99.90
40516;DHT22;26216;53.724;9.898;2024-03-23T08:01:36;9.20;99.90
40516;DHT22;26216;53.724;9.898;2024-03-23T08:04:02;9.30;99.90
40516;DHT22;26216;53.724;9.898;2024-03-23T08:06:28;9.40;99.90
40516;DHT22;26216;53.724;9.898;2024-03-23T08:08:57;9.50;99.90
40516;DHT22;26216;53.724;9.898;2024-03-23T08:11:31;9.60;99.90
40516;DHT22;26216;53.724;9.898;2024-03-23T08:13:57;9.70;99.90
40516;DHT22;26216;53.724;9.898;2024-03-23T08:16:24;9.80;99.90
40516;DHT22;26216;53.724;9.898;2024-03-23T08:18:53;9.90;99.90
40516;DHT22;26216;53.724;9.898;2024-03-23T08:21:19;9.90;99.90
40516;DHT22;26216;53.724;9.898;2024-03-23T08:23:45;9.90;99.90
40516;DHT22;26216;53.724;9.898;2024-03-23T08:26:12;10.00;99.90
40516;DHT22;26216;53.724;9.898;2024-03-23T08:28:39;10.10;99.90
40516;DHT22;26216;53.724;9.898;2024-03-23T08:31:08;10.20;99.90
40516;DHT22;26216;53.724;9.898;2024-03-23T08:33:35;10.30;99.90
40516;DHT22;26216;53.724;9.898;2024-03-23T08:36:06;10.40;99.90
40516;DHT22;26216;53.724;9.898;2024-03-23T08:38:32;10.40;99.90
40516;DHT22;26216;53.724;9.898;2024-03-23T08:41:06;10.60;99.90
40516;DHT22;26216;53.724;9.898;2024-03-23T08:43:35;10.70;99.90
40516;DHT22;26216;53.724;9.898;2024-03-23T08:46:11;10.80;99.90
40516;DHT22;26216;53.724;9.898;2024-03-23T08:48:45;10.90;99.90
40516;DHT22;26216;53.724;9.898;2024-03-23T08:51:13;11.00;99.90
40516;DHT22;26216;53.724;9.898;2024-03-23T08:53:39;11.10;99.90
40516;DHT22;26216;53.724;9.898;2024-03-23T08:56:06;11.20;99.90
40516;DHT22;26216;53.724;9.898;2024-03-23T08:58:34;11.30;99.90
40516;DHT22;26216;53.724;9.898;2024-03-23T09:01:18;11.40;99.90
40516;DHT22;26216;53.724;9.898;2024-03-23T09:03:44;11.50;99.90
40516;DHT22;26216;53.724;9.898;2024-03-23T09:06:13;11.50;99.90
40516;DHT22;26216;53.724;9.898;2024-03-23T09:08:39;11.60;99.90
40516;DHT22;26216;53.724;9.898;2024-03-23T09:11:11;11.70;99.90
40516;DHT22;26216;53.724;9.898;2024-03-23T09:13:38;11.70;99.90
40516;DHT22;26216;53.724;9.898;2024-03-23T09:16:05;11.80;99.90
40516;DHT22;26216;53.724;9.898;2024-03-23T09:18:38;11.80;99.90
40516;DHT22;26216;53.724;9.898;2024-03-23T09:21:11;12.00;99.90
40516;DHT22;26216;53.724;9.898;2024-03-23T09:23:37;12.00;99.90
40516;DHT22;26216;53.724;9.898;2024-03-23T09:26:03;12.00;99.90
40516;DHT22;26216;53.724;9.898;2024-03-23T09:28:29;12.10;99.90
40516;DHT22;26216;53.724;9.898;2024-03-23T09:31:05;12.10;99.90
40516;DHT22;26216;53.724;9.898;2024-03-23T09:33:31;12.20;99.90
40516;DHT22;26216;53.724;9.898;2024-03-23T09:35:57;12.20;99.90
40516;DHT22;26216;53.724;9.898;2024-03-23T09:38:23;12.30;99.90
40516;DHT22;26216;53.724;9.898;2024-03-23T09:40:52;12.30;99.90
40516;DHT22;26216;53.724;9.898;2024-03-23T09:43:19;12.40;99.90
40516;DHT22;26216;53.724;9.898;2024-03-23T09:45:46;12.50;99.90
40516;DHT22;26216;53.724;9.898;2024-03-23T09:48:14;12.50;99.90
40516;DHT22;26216;53.724;9.898;2024-03-23T09:50:41;12.60;99.90
40516;DHT22;26216;53.724;9.898;2024-03-23T09:53:07;12.70;99.90
40516;DHT22;26216;53.724;9.898;2024-03-23T09:55:35;12.70;99.90
40516;DHT22;26216;53.724;9.898;2024-03-23T09:58:04;12.80;99.90
40516;DHT22;26216;53.724;9.898;2024-03-23T10:00:34;12.80;99.90
40516;DHT22;26216;53.724;9.898;2024-03-23T10:03:01;12.90;99.90
40516;DHT22;26216;53.724;9.898;2024-03-23T10:05:29;13.00;99.90
40516;DHT22;26216;53.724;9.898;2024-03-23T10:07:57;13.10;99.90
40516;DHT22;26216;53.724;9.898;2024-03-23T10:10:25;13.20;99.90
40516;DHT22;26216;53.724;9.898;2024-03-23T10:12:52;13.30;99.90
40516;DHT22;26216;53.724;9.898;2024-03-23T10:17:45;13.50;99.90
40516;DHT22;26216;53.724;9.898;2024-03-23T10:20:12;13.60;99.90
40516;DHT22;26216;53.724;9.898;2024-03-23T10:22:39;13.70;99.90
40516;DHT22;26216;53.724;9.898;2024-03-23T10:25:10;13.80;99.90
40516;DHT22;26216;53.724;9.898;2024-03-23T10:27:37;13.70;99.90
40516;DHT22;26216;53.724;9.898;2024-03-23T10:30:10;13.80;99.90
40516;DHT22;26216;53.724;9.898;2024-03-23T10:32:36;13.80;99.90
40516;DHT22;26216;53.724;9.898;2024-03-23T10:35:22;13.70;99.90
40516;DHT22;26216;53.724;9.898;2024-03-23T10:37:49;13.60;99.90
40516;DHT22;26216;53.724;9.898;2024-03-23T10:40:16;13.50;99.90
40516;DHT22;26216;53.724;9.898;2024-03-23T10:42:44;13.50;99.90
40516;DHT22;26216;53.724;9.898;2024-03-23T10:45:10;13.50;99.90
40516;DHT22;26216;53.724;9.898;2024-03-23T10:47:37;13.40;99.90
40516;DHT22;26216;53.724;9.898;2024-03-23T10:50:04;13.40;99.90
40516;DHT22;26216;53.724;9.898;2024-03-23T10:52:33;13.40;99.90
40516;DHT22;26216;53.724;9.898;2024-03-23T10:55:03;13.30;99.90
40516;DHT22;26216;53.724;9.898;2024-03-23T10:57:37;13.20;99.90
40516;DHT22;26216;53.724;9.898;2024-03-23T11:00:05;13.30;99.90
40516;DHT22;26216;53.724;9.898;2024-03-23T11:02:31;13.30;99.90
40516;DHT22;26216;53.724;9.898;2024-03-23T11:04:58;13.20;99.90
40516;DHT22;26216;53.724;9.898;2024-03-23T11:10:01;13.10;99.70
40516;DHT22;26216;53.724;9.898;2024-03-23T11:12:31;13.10;99.90
40516;DHT22;26216;53.724;9.898;2024-03-23T11:15:03;13.10;99.90
40516;DHT22;26216;53.724;9.898;2024-03-23T11:17:40;13.20;99.40
40516;DHT22;26216;53.724;9.898;2024-03-23T11:20:07;13.20;99.90
40516;DHT22;26216;53.724;9.898;2024-03-23T11:27:44;12.70;97.40
40516;DHT22;26216;53.724;9.898;2024-03-23T11:30:24;12.60;97.70
40516;DHT22;26216;53.724;9.898;2024-03-23T11:32:52;12.40;98.10
40516;DHT22;26216;53.724;9.898;2024-03-23T11:35:31;12.30;99.50
40516;DHT22;26216;53.724;9.898;2024-03-23T11:40:29;12.00;99.70
40516;DHT22;26216;53.724;9.898;2024-03-23T11:42:59;11.90;99.90
40516;DHT22;26216;53.724;9.898;2024-03-23T11:45:26;11.90;99.90
40516;DHT22;26216;53.724;9.898;2024-03-23T11:50:30;11.60;99.90
40516;DHT22;26216;53.724;9.898;2024-03-23T11:53:18;11.40;99.90
40516;DHT22;26216;53.724;9.898;2024-03-23T11:55:48;11.10;99.90
40516;DHT22;26216;53.724;9.898;2024-03-23T11:58:15;10.80;99.90
40516;DHT22;26216;53.724;9.898;2024-03-23T12:00:42;10.60;99.90
40516;DHT22;26216;53.724;9.898;2024-03-23T12:03:08;10.40;99.90
40516;DHT22;26216;53.724;9.898;2024-03-23T12:05:36;10.30;99.90
40516;DHT22;26216;53.724;9.898;2024-03-23T12:11:08;10.10;99.90
40516;DHT22;26216;53.724;9.898;2024-03-23T12:13:35;10.10;99.90
40516;DHT22;26216;53.724;9.898;2024-03-23T12:16:20;10.10;99.90
40516;DHT22;26216;53.724;9.898;2024-03-23T12:18:48;10.10;99.90
40516;DHT22;26216;53.724;9.898;2024-03-23T12:21:15;10.20;99.90
40516;DHT22;26216;53.724;9.898;2024-03-23T12:23:43;10.30;99.90
40516;DHT22;26216;53.724;9.898;2024-03-23T12:26:14;10.30;99.90
40516;DHT22;26216;53.724;9.898;2024-03-23T12:28:39;10.40;99.90
40516;DHT22;26216;53.724;9.898;2024-03-23T12:31:05;10.50;99.90
40516;DHT22;26216;53.724;9.898;2024-03-23T12:33:31;10.50;99.90
40516;DHT22;26216;53.724;9.898;2024-03-23T12:35:57;10.60;99.90
40516;DHT22;26216;53.724;9.898;2024-03-23T12:38:30;10.60;99.90
40516;DHT22;26216;53.724;9.898;2024-03-23T12:40:56;10.60;99.90
40516;DHT22;26216;53.724;9.898;2024-03-23T12:43:22;10.60;99.90
40516;DHT22;26216;53.724;9.898;2024-03-23T12:45:49;10.60;99.90
40516;DHT22;26216;53.724;9.898;2024-03-23T12:48:16;10.60;99.90
40516;DHT22;26216;53.724;9.898;2024-03-23T12:50:42;10.60;99.90
40516;DHT22;26216;53.724;9.898;2024-03-23T12:53:11;10.50;99.90
40516;DHT22;26216;53.724;9.898;2024-03-23T12:55:37;10.60;99.90
40516;DHT22;26216;53.724;9.898;2024-03-23T12:58:03;10.60;99.90
40516;DHT22;26216;53.724;9.898;2024-03-23T13:00:30;10.60;99.90
40516;DHT22;26216;53.724;9.898;2024-03-23T13:02:57;10.70;99.90
40516;DHT22;26216;53.724;9.898;2024-03-23T13:05:23;10.70;99.90
40516;DHT22;26216;53.724;9.898;2024-03-23T13:07:49;10.80;99.90
40516;DHT22;26216;53.724;9.898;2024-03-23T13:10:15;10.90;99.90
40516;DHT22;26216;53.724;9.898;2024-03-23T13:12:42;10.90;99.90
40516;DHT22;26216;53.724;9.898;2024-03-23T13:15:09;10.90;99.90
40516;DHT22;26216;53.724;9.898;2024-03-23T13:17:35;11.10;99.90
40516;DHT22;26216;53.724;9.898;2024-03-23T13:20:02;11.10;99.90
40516;DHT22;26216;53.724;9.898;2024-03-23T13:22:29;10.80;99.90
40516;DHT22;26216;53.724;9.898;2024-03-23T13:24:55;10.60;99.90
40516;DHT22;26216;53.724;9.898;2024-03-23T13:27:22;10.30;99.90
40516;DHT22;26216;53.724;9.898;2024-03-23T13:29:50;10.00;99.90
40516;DHT22;26216;53.724;9.898;2024-03-23T13:32:16;9.50;99.90
40516;DHT22;26216;53.724;9.898;2024-03-23T13:34:42;8.90;99.90
40516;DHT22;26216;53.724;9.898;2024-03-23T13:37:08;8.60;99.90
40516;DHT22;26216;53.724;9.898;2024-03-23T13:39:35;8.40;99.90
40516;DHT22;26216;53.724;9.898;2024-03-23T13:42:02;8.30;99.90
40516;DHT22;26216;53.724;9.898;2024-03-23T13:44:29;8.30;99.90
40516;DHT22;26216;53.724;9.898;2024-03-23T13:46:55;8.30;99.90
40516;DHT22;26216;53.724;9.898;2024-03-23T13:49:29;8.30;99.90
40516;DHT22;26216;53.724;9.898;2024-03-23T13:51:57;8.40;99.90
40516;DHT22;26216;53.724;9.898;2024-03-23T13:54:24;8.50;99.90
40516;DHT22;26216;53.724;9.898;2024-03-23T13:56:51;8.50;99.90
40516;DHT22;26216;53.724;9.898;2024-03-23T13:59:18;8.70;99.90
40516;DHT22;26216;53.724;9.898;2024-03-23T14:01:45;8.80;99.90
40516;DHT22;26216;53.724;9.898;2024-03-23T14:04:14;9.00;99.90
40516;DHT22;26216;53.724;9.898;2024-03-23T14:06:43;9.20;99.90
40516;DHT22;26216;53.724;9.898;2024-03-23T14:09:13;9.40;99.90
40516;DHT22;26216;53.724;9.898;2024-03-23T14:11:41;9.50;99.90
40516;DHT22;26216;53.724;9.898;2024-03-23T14:14:09;9.70;99.90
40516;DHT22;26216;53.724;9.898;2024-03-23T14:16:35;9.80;99.90
40516;DHT22;26216;53.724;9.898;2024-03-23T14:19:02;9.90;99.90
40516;DHT22;26216;53.724;9.898;2024-03-23T14:21:31;10.00;99.90
40516;DHT22;26216;53.724;9.898;2024-03-23T14:23:57;10.10;99.90
40516;DHT22;26216;53.724;9.898;2024-03-23T14:26:23;10.20;99.90
40516;DHT22;26216;53.724;9.898;2024-03-23T14:28:50;10.30;99.90
40516;DHT22;26216;53.724;9.898;2024-03-23T14:31:16;10.30;99.90
40516;DHT22;26216;53.724;9.898;2024-03-23T14:33:42;10.30;99.90
40516;DHT22;26216;53.724;9.898;2024-03-23T14:36:16;10.40;99.90
40516;DHT22;26216;53.724;9.898;2024-03-23T14:38:47;10.50;99.90
40516;DHT22;26216;53.724;9.898;2024-03-23T14:41:13;10.70;99.90
40516;DHT22;26216;53.724;9.898;2024-03-23T14:43:39;10.70;99.90
40516;DHT22;26216;53.724;9.898;2024-03-23T14:46:15;10.80;99.90
40516;DHT22;26216;53.724;9.898;2024-03-23T14:48:43;10.90;99.90
40516;DHT22;26216;53.724;9.898;2024-03-23T14:51:10;11.00;99.90
40516;DHT22;26216;53.724;9.898;2024-03-23T14:53:39;10.90;99.90
40516;DHT22;26216;53.724;9.898;2024-03-23T14:56:07;11.00;99.90
40516;DHT22;26216;53.724;9.898;2024-03-23T14:58:33;11.00;99.90
40516;DHT22;26216;53.724;9.898;2024-03-23T15:01:07;11.00;99.90
40516;DHT22;26216;53.724;9.898;2024-03-23T15:03:37;11.10;99.90
40516;DHT22;26216;53.724;9.898;2024-03-23T15:06:04;11.10;99.90
40516;DHT22;26216;53.724;9.898;2024-03-23T15:08:31;11.10;99.90
40516;DHT22;26216;53.724;9.898;2024-03-23T15:11:01;11.20;99.90
40516;DHT22;26216;53.724;9.898;2024-03-23T15:13:33;11.20;99.90
40516;DHT22;26216;53.724;9.898;2024-03-23T15:15:59;11.20;99.90
40516;DHT22;26216;53.724;9.898;2024-03-23T15:18:25;11.30;99.90
40516;DHT22;26216;53.724;9.898;2024-03-23T15:20:56;11.30;99.90
40516;DHT22;26216;53.724;9.898;2024-03-23T15:23:23;11.30;99.90
40516;DHT22;26216;53.724;9.898;2024-03-23T15:26:00;11.30;99.90
40516;DHT22;26216;53.724;9.898;2024-03-23T15:28:27;11.40;99.90
40516;DHT22;26216;53.724;9.898;2024-03-23T15:31:09;11.40;99.90
40516;DHT22;26216;53.724;9.898;2024-03-23T15:33:36;11.40;99.90
40516;DHT22;26216;53.724;9.898;2024-03-23T15:36:02;11.50;99.90
40516;DHT22;26216;53.724;9.898;2024-03-23T15:38:29;11.50;99.90
40516;DHT22;26216;53.724;9.898;2024-03-23T15:40:55;11.50;99.90
40516;DHT22;26216;53.724;9.898;2024-03-23T15:43:21;11.50;99.90
40516;DHT22;26216;53.724;9.898;2024-03-23T15:46:04;11.50;99.90
40516;DHT22;26216;53.724;9.898;2024-03-23T15:48:31;11.50;99.90
40516;DHT22;26216;53.724;9.898;2024-03-23T15:50:59;11.50;99.90
40516;DHT22;26216;53.724;9.898;2024-03-23T15:53:27;11.40;99.90
40516;DHT22;26216;53.724;9.898;2024-03-23T15:56:01;11.40;99.90
40516;DHT22;26216;53.724;9.898;2024-03-23T15:58:30;11.30;99.90
40516;DHT22;26216;53.724;9.898;2024-03-23T16:01:04;11.10;99.90
40516;DHT22;26216;53.724;9.898;2024-03-23T16:03:32;10.80;99.90
40516;DHT22;26216;53.724;9.898;2024-03-23T16:06:01;10.70;99.90
40516;DHT22;26216;53.724;9.898;2024-03-23T16:08:28;10.50;99.90
40516;DHT22;26216;53.724;9.898;2024-03-23T16:10:54;10.40;99.90
40516;DHT22;26216;53.724;9.898;2024-03-23T16:13:25;10.30;99.90
40516;DHT22;26216;53.724;9.898;2024-03-23T16:15:59;10.30;99.90
40516;DHT22;26216;53.724;9.898;2024-03-23T16:18:25;10.10;99.90
40516;DHT22;26216;53.724;9.898;2024-03-23T16:21:02;10.10;99.90
40516;DHT22;26216;53.724;9.898;2024-03-23T16:23:29;9.90;99.90
40516;DHT22;26216;53.724;9.898;2024-03-23T16:25:57;9.90;99.90
40516;DHT22;26216;53.724;9.898;2024-03-23T16:28:27;9.80;99.90
40516;DHT22;26216;53.724;9.898;2024-03-23T16:31:05;9.80;99.90
40516;DHT22;26216;53.724;9.898;2024-03-23T16:33:35;9.80;99.90
40516;DHT22;26216;53.724;9.898;2024-03-23T16:36:08;9.70;99.90
40516;DHT22;26216;53.724;9.898;2024-03-23T16:38:54;9.70;99.90
40516;DHT22;26216;53.724;9.898;2024-03-23T16:41:20;9.70;99.90
40516;DHT22;26216;53.724;9.898;2024-03-23T16:43:46;9.70;99.90
40516;DHT22;26216;53.724;9.898;2024-03-23T16:46:22;9.70;99.90
40516;DHT22;26216;53.724;9.898;2024-03-23T16:48:52;9.70;99.90
40516;DHT22;26216;53.724;9.898;2024-03-23T16:51:18;9.70;99.90
40516;DHT22;26216;53.724;9.898;2024-03-23T16:53:44;9.70;99.90
40516;DHT22;26216;53.724;9.898;2024-03-23T16:56:11;9.80;99.90